Lancaster, SC

11:09 AM EST on December 06, 2016 (GMT -0500)
The Old Goat's Ranch | | Change Station

Elev 463 ft 34.71 °N, 80.96 °W | Updated 15 minutes ago

Drizzle
Drizzle
47.0 °F
Feels Like 45 °F
N
5.0
Wind Variable Wind from NE
Gusts 6.0 mph

Today
High -- | Low -- °F
--% Chance of Precip.
Yesterday
High -- | Low -- °F
Precip. -- in
Pressure 29.82 in
Visibility 1.8 miles
Clouds Overcast 300 ft
Windchill 45 °F
Dew Point 47 °F
Humidity 98%
Rainfall 0.18 in
Snow Depth Not available.
7:17 AM 5:12 PM
Waxing Crescent, 43% visible
METAR KDCM 061555Z AUTO 05010KT 1 3/4SM DZ OVC003 07/07 A2982 RMK AO2 LTG DSNT SE AND NW P0001
Pressure 29.82 in
Visibility 1.8 miles
Clouds Overcast 300 ft
Windchill 45 °F
Dew Point 47 °F
Humidity 98%
Rainfall 0.18 in
Snow Depth Not available.
7:17 AM 5:12 PM
Waxing Crescent, 43% visible
METAR KDCM 061555Z AUTO 05010KT 1 3/4SM DZ OVC003 07/07 A2982 RMK AO2 LTG DSNT SE AND NW P0001

10-Day Weather Forecast

Almanac

Astronomy

Dec. 06, 2016 Rise Set
Actual Time
Civil Twilight
Nautical Twilight
Astronomical Twilight
Moon
Length of Visible Light
Length of Day
Tomorrow will be .
, % of the Moon is Illuminated

Today's Extremes

State Highs State Lows

Community

WunderPhotos

Upload Photos

1,955,965 photos uploaded!

WunderBlog® & News

Nearby

Air Quality

  Air Quality AQ Index Pollutant
Not available.

Snow Depth

Station Depth Elevation

Earthquake Activity

City Distance Mag. Time & Date
Minimum magnitude displayed is 2.5.

Coastal Water Temperatures

Place Temperature

Stations

Nearby Weather Stations

Station Location Temp. Windchill Dew Point Humidity Wind Precip. Elev Updated Type
                   

Watches & Warnings

There are currently no watches in effect.